createdAt,value
2017-11-15T00:00:28.719Z,90.50
2017-11-15T00:02:56.359Z,90.60
2017-11-15T00:05:24.854Z,90.60
2017-11-15T00:07:53.218Z,90.70
2017-11-15T00:10:21.635Z,90.80
2017-11-15T00:12:49.571Z,90.50
2017-11-15T00:15:17.192Z,90.60
2017-11-15T00:17:44.809Z,90.60
2017-11-15T00:20:13.219Z,90.70
2017-11-15T00:22:40.841Z,90.70
2017-11-15T00:25:09.272Z,90.40
2017-11-15T00:27:36.883Z,90.70
2017-11-15T00:30:04.555Z,90.80
2017-11-15T00:32:32.940Z,90.60
2017-11-15T00:35:00.586Z,90.50
2017-11-15T00:37:28.208Z,90.50
2017-11-15T00:39:56.601Z,90.60
2017-11-15T00:42:24.983Z,90.70
2017-11-15T00:44:52.683Z,90.70
2017-11-15T00:47:20.342Z,90.80
2017-11-15T00:49:48.094Z,90.90
2017-11-15T00:52:16.077Z,90.90
2017-11-15T00:54:43.714Z,91.00
2017-11-15T00:57:12.145Z,91.00
2017-11-15T00:59:39.868Z,91.00
2017-11-15T01:02:08.285Z,91.00
2017-11-15T01:04:35.891Z,91.00
2017-11-15T01:07:03.575Z,91.00
2017-11-15T01:09:31.961Z,91.00
2017-11-15T01:12:00.441Z,90.90
2017-11-15T01:14:28.814Z,90.90
2017-11-15T01:16:56.485Z,90.90
2017-11-15T01:19:24.337Z,90.90
2017-11-15T01:21:52.014Z,90.90
2017-11-15T01:24:19.698Z,91.00
2017-11-15T01:26:47.403Z,90.90
2017-11-15T01:29:15.098Z,90.90
2017-11-15T01:31:42.729Z,90.90
2017-11-15T01:34:10.379Z,90.90
2017-11-15T01:36:38.756Z,90.90
2017-11-15T01:39:07.214Z,91.00
2017-11-15T01:41:34.960Z,91.00
2017-11-15T01:44:02.900Z,90.90
2017-11-15T01:46:30.559Z,90.90
2017-11-15T01:48:59.097Z,90.90
2017-11-15T01:51:26.769Z,91.10
2017-11-15T01:53:54.399Z,90.80
2017-11-15T01:56:22.119Z,90.80
2017-11-15T01:58:49.777Z,90.70
2017-11-15T02:01:17.482Z,90.70
2017-11-15T02:03:45.878Z,90.70
2017-11-15T02:06:13.776Z,90.80
2017-11-15T02:08:41.444Z,90.80
2017-11-15T02:11:09.142Z,90.60
2017-11-15T02:13:36.750Z,90.60
2017-11-15T02:16:04.435Z,90.60
2017-11-15T02:18:32.094Z,90.50
2017-11-15T02:20:59.733Z,90.50
2017-11-15T02:23:28.220Z,90.60
2017-11-15T02:25:55.906Z,90.60
2017-11-15T02:28:23.520Z,90.60
2017-11-15T02:30:51.572Z,90.60
2017-11-15T02:33:19.245Z,90.60
2017-11-15T02:35:46.921Z,90.60
2017-11-15T02:38:14.582Z,90.60
2017-11-15T02:40:42.211Z,90.50
2017-11-15T02:43:09.908Z,90.60
2017-11-15T02:45:37.510Z,90.60
2017-11-15T02:48:05.182Z,90.60
2017-11-15T02:50:34.595Z,90.70
2017-11-15T02:53:03.281Z,90.70
2017-11-15T02:55:30.920Z,90.70
2017-11-15T02:57:58.566Z,90.70
2017-11-15T03:00:26.188Z,90.70
2017-11-15T03:02:54.624Z,90.80
2017-11-15T03:05:22.245Z,90.80
2017-11-15T03:07:50.638Z,91.00
2017-11-15T03:10:19.027Z,91.00
2017-11-15T03:12:46.643Z,91.00
2017-11-15T03:15:14.275Z,91.10
2017-11-15T03:17:42.845Z,91.20
2017-11-15T03:20:10.508Z,91.20
2017-11-15T03:22:38.898Z,91.30
2017-11-15T03:25:06.699Z,91.20
2017-11-15T03:27:34.353Z,91.30
2017-11-15T03:30:02.033Z,91.40
2017-11-15T03:32:29.648Z,91.50
2017-11-15T03:34:58.052Z,91.70
2017-11-15T03:37:26.000Z,91.70
2017-11-15T03:39:55.227Z,91.80
2017-11-15T03:42:23.021Z,91.80
2017-11-15T03:44:50.995Z,91.80
2017-11-15T03:47:18.614Z,92.10
2017-11-15T03:49:47.499Z,91.80
2017-11-15T03:52:16.427Z,92.00
2017-11-15T03:54:44.170Z,91.80
2017-11-15T03:57:12.564Z,91.80
2017-11-15T03:59:40.932Z,91.80
2017-11-15T04:02:08.608Z,91.80
2017-11-15T04:04:36.982Z,91.90
2017-11-15T04:07:05.488Z,91.80
2017-11-15T04:09:33.865Z,91.90
2017-11-15T04:12:02.419Z,91.90
2017-11-15T04:14:30.009Z,91.90
2017-11-15T04:16:58.419Z,92.00
2017-11-15T04:19:26.029Z,91.90
2017-11-15T04:21:53.701Z,91.90
2017-11-15T04:24:22.321Z,92.00
2017-11-15T04:26:50.748Z,92.00
2017-11-15T04:29:18.370Z,91.90
2017-11-15T04:31:46.740Z,91.90
2017-11-15T04:34:15.319Z,91.90
2017-11-15T04:36:42.929Z,91.90
2017-11-15T04:39:10.572Z,91.90
2017-11-15T04:41:38.927Z,91.90
2017-11-15T04:44:06.554Z,91.80
2017-11-15T04:46:34.176Z,91.90
2017-11-15T04:49:01.799Z,91.90
2017-11-15T04:51:29.409Z,91.90
2017-11-15T04:53:57.816Z,92.00
2017-11-15T04:56:26.187Z,92.10
2017-11-15T04:58:54.752Z,92.10
2017-11-15T05:01:22.363Z,92.10
2017-11-15T05:03:50.045Z,92.20
2017-11-15T05:06:17.662Z,92.20
2017-11-15T05:08:46.048Z,92.30
2017-11-15T05:11:14.436Z,92.40
2017-11-15T05:13:42.832Z,92.40
2017-11-15T05:16:11.261Z,92.50
2017-11-15T05:18:38.859Z,92.50
2017-11-15T05:21:07.491Z,92.60
2017-11-15T05:23:35.090Z,92.60
2017-11-15T05:26:02.749Z,92.50
2017-11-15T05:28:30.876Z,92.50
2017-11-15T05:30:58.526Z,92.50
2017-11-15T05:33:26.138Z,92.50
2017-11-15T05:35:53.770Z,92.50
2017-11-15T05:38:23.049Z,92.60
2017-11-15T05:40:50.674Z,92.60
2017-11-15T05:43:18.284Z,92.60
2017-11-15T05:45:45.928Z,92.70
2017-11-15T05:48:13.539Z,92.70
2017-11-15T05:50:42.023Z,92.70
2017-11-15T05:53:10.400Z,92.70
2017-11-15T05:55:38.040Z,92.70
2017-11-15T05:58:05.717Z,92.60
2017-11-15T06:00:33.330Z,92.60
2017-11-15T06:03:00.958Z,92.70
2017-11-15T06:05:28.580Z,92.70
2017-11-15T06:07:56.247Z,92.70
2017-11-15T06:10:23.868Z,92.70
2017-11-15T06:12:51.874Z,92.70
2017-11-15T06:15:19.417Z,92.60
2017-11-15T06:17:47.884Z,92.50
2017-11-15T06:20:16.300Z,92.50
2017-11-15T06:22:44.050Z,92.50
2017-11-15T06:25:11.654Z,92.40
2017-11-15T06:27:39.390Z,92.40
2017-11-15T06:30:07.848Z,92.20
2017-11-15T06:32:35.505Z,92.20
2017-11-15T06:35:03.882Z,92.00
2017-11-15T06:37:31.528Z,92.00
2017-11-15T06:39:59.378Z,91.90
2017-11-15T06:42:27.072Z,91.80
2017-11-15T06:44:54.709Z,91.90
2017-11-15T06:47:22.332Z,91.90
2017-11-15T06:49:49.964Z,92.00
2017-11-15T06:52:17.572Z,92.00
2017-11-15T06:54:46.002Z,92.00
2017-11-15T06:57:13.608Z,92.00
2017-11-15T06:59:41.248Z,91.90
2017-11-15T07:02:08.843Z,91.90
2017-11-15T07:04:36.473Z,91.90
2017-11-15T07:07:04.069Z,91.90
2017-11-15T07:09:31.731Z,91.90
2017-11-15T07:11:59.337Z,91.70
2017-11-15T07:14:27.713Z,92.00
2017-11-15T07:16:56.110Z,91.90
2017-11-15T07:19:23.738Z,91.90
2017-11-15T07:21:51.374Z,92.00
2017-11-15T07:24:18.985Z,91.90
2017-11-15T07:26:46.593Z,91.80
2017-11-15T07:29:14.220Z,91.90
2017-11-15T07:31:42.628Z,92.00
2017-11-15T07:34:10.975Z,92.10
2017-11-15T07:36:38.711Z,92.10
2017-11-15T07:39:07.324Z,92.00
2017-11-15T07:41:35.012Z,92.10
2017-11-15T07:44:02.616Z,92.00
2017-11-15T07:46:30.307Z,92.00
2017-11-15T07:48:57.914Z,92.00
2017-11-15T07:51:26.683Z,91.90
2017-11-15T07:53:54.306Z,91.90
2017-11-15T07:56:21.967Z,91.90
2017-11-15T07:58:49.581Z,92.10
2017-11-15T08:01:17.250Z,92.00
2017-11-15T08:03:45.664Z,92.30
2017-11-15T08:06:14.036Z,91.90
2017-11-15T08:08:41.687Z,91.90
2017-11-15T08:11:09.294Z,91.90
2017-11-15T08:13:36.911Z,92.00
2017-11-15T08:16:04.550Z,92.00
2017-11-15T08:18:32.200Z,92.00
2017-11-15T08:20:59.812Z,91.90
2017-11-15T08:23:27.439Z,91.80
2017-11-15T08:25:55.024Z,91.80
2017-11-15T08:28:22.654Z,91.70
2017-11-15T08:30:50.252Z,91.70
2017-11-15T08:33:19.140Z,91.60
2017-11-15T08:35:46.744Z,91.60
2017-11-15T08:38:15.128Z,91.60
2017-11-15T08:40:43.987Z,91.40
2017-11-15T08:43:11.601Z,91.40
2017-11-15T08:45:40.036Z,91.50
2017-11-15T08:48:07.658Z,91.20
2017-11-15T08:50:36.364Z,91.30
2017-11-15T08:53:03.972Z,91.40
2017-11-15T08:55:31.884Z,91.30
2017-11-15T08:58:00.249Z,91.30
2017-11-15T09:00:27.864Z,91.30
2017-11-15T09:02:55.483Z,91.40
2017-11-15T09:05:23.150Z,91.40
2017-11-15T09:07:50.754Z,91.50
2017-11-15T09:10:18.398Z,91.50
2017-11-15T09:12:46.782Z,91.40
2017-11-15T09:15:15.339Z,91.30
2017-11-15T09:17:42.947Z,91.30
2017-11-15T09:20:10.544Z,91.30
2017-11-15T09:22:38.240Z,91.20
2017-11-15T09:25:05.847Z,91.40
2017-11-15T09:27:33.483Z,91.30
2017-11-15T09:30:02.883Z,91.20
2017-11-15T09:32:30.526Z,91.30
2017-11-15T09:34:58.765Z,91.40
2017-11-15T09:37:27.238Z,91.20
2017-11-15T09:39:55.618Z,90.80
2017-11-15T09:42:24.031Z,90.40
2017-11-15T09:44:51.636Z,90.40
2017-11-15T09:47:19.269Z,90.50
2017-11-15T09:49:46.902Z,90.30
2017-11-15T09:52:15.307Z,90.00
2017-11-15T09:54:42.908Z,90.00
2017-11-15T09:57:10.572Z,89.60
2017-11-15T09:59:39.329Z,89.50
2017-11-15T10:02:06.963Z,89.50
2017-11-15T10:04:34.652Z,90.00
2017-11-15T10:07:04.559Z,89.60
2017-11-15T10:09:32.975Z,88.40
2017-11-15T10:12:00.598Z,88.40
2017-11-15T10:14:29.922Z,87.90
2017-11-15T10:17:07.359Z,88.00
2017-11-15T10:19:35.053Z,87.90
2017-11-15T10:22:03.470Z,87.90
2017-11-15T10:24:31.349Z,87.90
2017-11-15T10:26:59.737Z,87.70
2017-11-15T10:29:27.354Z,87.60
2017-11-15T10:31:54.976Z,87.60
2017-11-15T10:34:22.613Z,88.00
2017-11-15T10:36:51.021Z,88.60
2017-11-15T10:39:18.634Z,88.60
2017-11-15T10:41:46.282Z,89.50
2017-11-15T10:44:13.925Z,89.90
2017-11-15T10:46:41.558Z,88.90
2017-11-15T10:49:09.158Z,89.00
2017-11-15T10:51:36.814Z,89.60
2017-11-15T10:54:04.433Z,89.80
2017-11-15T10:56:32.068Z,89.60
2017-11-15T10:58:59.689Z,89.30
2017-11-15T11:01:28.090Z,89.80
2017-11-15T11:03:56.737Z,89.80
2017-11-15T11:06:24.387Z,90.10
2017-11-15T11:08:51.988Z,90.40
2017-11-15T11:11:19.609Z,90.50
2017-11-15T11:13:47.203Z,90.00
2017-11-15T11:16:14.945Z,90.30
2017-11-15T11:18:42.587Z,90.30
2017-11-15T11:21:10.244Z,90.30
2017-11-15T11:23:39.709Z,90.30
2017-11-15T11:26:07.353Z,90.10
2017-11-15T11:28:34.950Z,90.40
2017-11-15T11:31:02.560Z,90.40
2017-11-15T11:33:30.253Z,90.20
2017-11-15T11:35:58.707Z,90.40
2017-11-15T11:38:26.353Z,90.00
2017-11-15T11:40:53.934Z,90.20
2017-11-15T11:43:22.572Z,90.20
2017-11-15T11:45:50.182Z,90.30
2017-11-15T11:48:18.586Z,90.20
2017-11-15T11:50:46.174Z,90.10
2017-11-15T11:53:13.840Z,90.20
2017-11-15T11:55:41.444Z,90.30
2017-11-15T11:58:09.482Z,90.00
2017-11-15T12:00:37.098Z,90.20
2017-11-15T12:03:05.526Z,90.00
2017-11-15T12:05:33.144Z,90.00
2017-11-15T12:08:01.538Z,89.90
2017-11-15T12:10:29.972Z,89.50
2017-11-15T12:12:57.578Z,89.60
2017-11-15T12:15:25.658Z,89.20
2017-11-15T12:17:54.054Z,89.30
2017-11-15T12:20:24.357Z,88.90
2017-11-15T12:22:52.945Z,88.90
2017-11-15T12:25:20.902Z,88.80
2017-11-15T12:27:50.543Z,89.30
2017-11-15T12:30:18.330Z,88.40
2017-11-15T12:32:46.697Z,88.40
2017-11-15T12:35:16.115Z,88.40
2017-11-15T12:37:43.825Z,88.40
2017-11-15T12:40:12.510Z,87.90
2017-11-15T12:42:40.132Z,88.10
2017-11-15T12:45:08.739Z,88.40
2017-11-15T12:47:36.370Z,88.40
2017-11-15T12:50:03.969Z,87.60
2017-11-15T12:52:31.622Z,88.00
2017-11-15T12:55:00.017Z,87.60
2017-11-15T12:57:27.690Z,87.50
2017-11-15T12:59:55.329Z,88.10
2017-11-15T13:02:23.729Z,87.50
2017-11-15T13:04:52.098Z,87.30
2017-11-15T13:07:20.530Z,87.30
2017-11-15T13:09:48.145Z,87.10
2017-11-15T13:12:16.551Z,87.40
2017-11-15T13:14:44.169Z,87.40
2017-11-15T13:17:11.918Z,86.90
2017-11-15T13:19:39.531Z,88.00
2017-11-15T13:22:07.177Z,87.20
2017-11-15T13:24:34.813Z,87.00
2017-11-15T13:27:02.475Z,86.50
2017-11-15T13:29:30.090Z,87.20
2017-11-15T13:31:58.521Z,87.00
2017-11-15T13:34:26.495Z,87.00
2017-11-15T13:36:54.401Z,87.40
2017-11-15T13:39:22.037Z,87.40
2017-11-15T13:41:49.658Z,87.60
2017-11-15T13:44:18.996Z,87.70
2017-11-15T13:46:46.682Z,87.70
2017-11-15T13:49:14.322Z,88.10
2017-11-15T13:51:41.946Z,88.70
2017-11-15T13:54:09.582Z,88.70
2017-11-15T13:56:37.178Z,88.40
2017-11-15T13:59:04.832Z,88.50
2017-11-15T14:01:32.426Z,88.90
2017-11-15T14:04:01.760Z,88.90
2017-11-15T14:06:29.657Z,88.90
2017-11-15T14:08:58.300Z,88.70
2017-11-15T14:11:26.735Z,89.20
2017-11-15T14:13:54.414Z,89.20
2017-11-15T14:16:22.025Z,89.30
2017-11-15T14:18:50.460Z,89.80
2017-11-15T14:21:18.137Z,89.80
2017-11-15T14:23:45.741Z,89.80
2017-11-15T14:26:14.143Z,90.00
2017-11-15T14:28:41.791Z,90.00
2017-11-15T14:31:10.197Z,90.20
2017-11-15T14:33:37.785Z,90.20
2017-11-15T14:36:05.414Z,90.30
2017-11-15T14:38:33.776Z,90.50
2017-11-15T14:41:01.438Z,90.50
2017-11-15T14:43:29.072Z,90.70
2017-11-15T14:45:56.722Z,90.80
2017-11-15T14:48:25.113Z,91.00
2017-11-15T14:50:53.150Z,91.30
2017-11-15T14:53:20.763Z,91.60
2017-11-15T14:55:48.393Z,91.70
2017-11-15T14:58:16.050Z,91.90
2017-11-15T15:00:43.655Z,92.00
2017-11-15T15:03:11.343Z,92.10
2017-11-15T15:05:39.007Z,92.20
2017-11-15T15:08:07.693Z,92.30
2017-11-15T15:10:35.324Z,92.40
2017-11-15T15:13:03.091Z,92.50
2017-11-15T15:15:30.693Z,92.50
2017-11-15T15:17:58.430Z,92.60
2017-11-15T15:20:27.787Z,92.70
2017-11-15T15:22:55.492Z,92.80
2017-11-15T15:25:23.117Z,92.70
2017-11-15T15:27:54.898Z,92.80
2017-11-15T15:30:22.530Z,92.80
2017-11-15T15:32:50.187Z,92.90
2017-11-15T15:35:17.847Z,92.90
2017-11-15T15:37:45.659Z,92.90
2017-11-15T15:40:13.278Z,93.00
2017-11-15T15:42:40.902Z,93.00
2017-11-15T15:45:08.727Z,93.10
2017-11-15T15:47:37.269Z,93.10
2017-11-15T15:50:04.896Z,93.10
2017-11-15T15:52:32.511Z,93.10
2017-11-15T15:55:00.214Z,93.10
2017-11-15T15:57:27.881Z,93.10
2017-11-15T15:59:55.532Z,93.10
2017-11-15T16:02:23.165Z,93.20
2017-11-15T16:04:51.018Z,93.10
2017-11-15T16:07:18.625Z,93.10
2017-11-15T16:09:46.589Z,93.10
2017-11-15T16:12:14.203Z,93.10
2017-11-15T16:14:42.138Z,93.20
2017-11-15T16:17:10.730Z,93.20
2017-11-15T16:19:38.363Z,93.10
2017-11-15T16:22:06.061Z,93.20
2017-11-15T16:24:33.700Z,93.20
2017-11-15T16:27:01.657Z,93.20
2017-11-15T16:29:29.281Z,93.20
2017-11-15T16:31:57.210Z,93.30
2017-11-15T16:34:25.661Z,93.30
2017-11-15T16:36:53.291Z,93.40
2017-11-15T16:39:20.904Z,93.40
2017-11-15T16:41:49.302Z,93.50
2017-11-15T16:44:16.935Z,93.50
2017-11-15T16:46:44.551Z,93.50
2017-11-15T16:49:12.197Z,93.60
2017-11-15T16:51:39.842Z,93.60
2017-11-15T16:54:08.582Z,93.60
2017-11-15T16:56:36.243Z,93.60
2017-11-15T16:59:03.845Z,93.60
2017-11-15T17:01:31.462Z,93.60
2017-11-15T17:03:59.087Z,93.50
2017-11-15T17:06:27.464Z,93.60
2017-11-15T17:08:55.898Z,93.80
2017-11-15T17:11:23.515Z,93.60
2017-11-15T17:13:51.179Z,93.60
2017-11-15T17:16:19.726Z,93.70
2017-11-15T17:18:47.385Z,94.00
2017-11-15T17:21:15.027Z,93.70
2017-11-15T17:23:43.407Z,93.80
2017-11-15T17:26:11.778Z,93.70
2017-11-15T17:28:39.419Z,93.70
2017-11-15T17:31:07.015Z,93.70
2017-11-15T17:33:35.417Z,93.80
2017-11-15T17:36:03.816Z,93.70
2017-11-15T17:38:31.547Z,93.70
2017-11-15T17:40:59.918Z,93.80
2017-11-15T17:43:28.438Z,93.70
2017-11-15T17:45:56.166Z,93.70
2017-11-15T17:48:23.828Z,93.70
2017-11-15T17:50:51.490Z,93.80
2017-11-15T17:53:19.143Z,93.80
2017-11-15T17:55:46.791Z,93.80
2017-11-15T17:58:14.428Z,93.70
2017-11-15T18:00:42.851Z,93.90
2017-11-15T18:03:10.467Z,93.90
2017-11-15T18:05:38.199Z,94.00
2017-11-15T18:08:05.861Z,94.00
2017-11-15T18:10:33.832Z,94.00
2017-11-15T18:13:01.470Z,94.10
2017-11-15T18:15:29.138Z,94.10
2017-11-15T18:17:56.784Z,94.10
2017-11-15T18:20:24.456Z,94.20
2017-11-15T18:22:52.845Z,94.40
2017-11-15T18:25:21.271Z,94.40
2017-11-15T18:27:48.912Z,94.40
2017-11-15T18:30:16.707Z,94.50
2017-11-15T18:32:44.331Z,94.60
2017-11-15T18:35:12.703Z,94.60
2017-11-15T18:37:40.540Z,94.60
2017-11-15T18:40:08.204Z,94.70
2017-11-15T18:42:35.966Z,94.70
2017-11-15T18:45:03.584Z,94.70
2017-11-15T18:47:31.981Z,94.80
2017-11-15T18:49:59.622Z,94.80
2017-11-15T18:52:27.288Z,94.80
2017-11-15T18:54:55.679Z,94.90
2017-11-15T18:57:24.132Z,94.90
2017-11-15T18:59:51.725Z,94.90
2017-11-15T19:02:20.821Z,95.00
2017-11-15T19:04:48.440Z,94.90
2017-11-15T19:07:16.346Z,95.00
2017-11-15T19:09:43.955Z,94.90
2017-11-15T19:12:12.590Z,95.00
2017-11-15T19:14:40.215Z,95.00
2017-11-15T19:17:07.818Z,95.00
2017-11-15T19:19:35.450Z,95.10
2017-11-15T19:22:03.121Z,95.10
2017-11-15T19:24:31.110Z,95.00
2017-11-15T19:26:58.742Z,95.10
2017-11-15T19:29:26.753Z,95.10
2017-11-15T19:31:54.393Z,95.10
2017-11-15T19:34:22.069Z,95.10
2017-11-15T19:36:49.705Z,95.10
2017-11-15T19:39:18.139Z,95.20
2017-11-15T19:41:45.786Z,95.10
2017-11-15T19:44:13.800Z,95.20
2017-11-15T19:46:41.805Z,95.20
2017-11-15T19:49:09.511Z,95.20
2017-11-15T19:51:37.845Z,95.10
2017-11-15T19:54:05.610Z,95.20
2017-11-15T19:56:34.008Z,95.20
2017-11-15T19:59:02.373Z,95.10
2017-11-15T20:01:30.062Z,95.10
2017-11-15T20:03:58.486Z,95.10
2017-11-15T20:06:26.165Z,95.10
2017-11-15T20:08:53.812Z,95.10
2017-11-15T20:11:21.822Z,95.10
2017-11-15T20:13:49.461Z,95.10
2017-11-15T20:16:17.123Z,95.10
2017-11-15T20:18:45.499Z,95.10
2017-11-15T20:21:13.932Z,95.10
2017-11-15T20:23:41.547Z,95.10
2017-11-15T20:26:10.249Z,95.10
2017-11-15T20:28:37.860Z,95.10
2017-11-15T20:31:05.499Z,95.10
2017-11-15T20:33:33.479Z,95.10
2017-11-15T20:36:01.155Z,95.10
2017-11-15T20:38:28.971Z,95.10
2017-11-15T20:40:56.610Z,95.10
2017-11-15T20:43:24.259Z,95.50
2017-11-15T20:45:51.899Z,95.20
2017-11-15T20:48:19.539Z,95.20
2017-11-15T20:50:48.149Z,95.20
2017-11-15T20:53:16.528Z,95.30
2017-11-15T20:55:44.918Z,95.30
2017-11-15T20:58:12.683Z,95.30
2017-11-15T21:00:40.299Z,95.30
2017-11-15T21:03:08.144Z,95.30
2017-11-15T21:05:35.775Z,95.30
2017-11-15T21:08:04.134Z,95.40
2017-11-15T21:10:31.755Z,95.30
2017-11-15T21:12:59.382Z,95.40
2017-11-15T21:15:27.841Z,95.40
2017-11-15T21:17:55.459Z,95.40
2017-11-15T21:20:23.254Z,95.40
2017-11-15T21:22:50.891Z,95.40
2017-11-15T21:25:18.599Z,95.40
2017-11-15T21:27:46.192Z,95.50
2017-11-15T21:30:13.827Z,95.40
2017-11-15T21:32:41.422Z,95.40
2017-11-15T21:35:09.050Z,95.40
2017-11-15T21:37:37.233Z,95.40
2017-11-15T21:40:04.905Z,95.40
2017-11-15T21:42:32.515Z,95.40
2017-11-15T21:45:00.935Z,95.40
2017-11-15T21:47:28.894Z,95.40
2017-11-15T21:49:57.373Z,95.40
2017-11-15T21:52:25.034Z,95.40
2017-11-15T21:54:53.409Z,95.40
2017-11-15T21:57:21.953Z,95.40
2017-11-15T21:59:49.560Z,95.40
2017-11-15T22:02:17.248Z,95.40
2017-11-15T22:04:45.605Z,95.30
2017-11-15T22:07:14.156Z,95.40
2017-11-15T22:09:41.735Z,95.30
2017-11-15T22:12:09.373Z,95.30
2017-11-15T22:14:37.020Z,95.60
2017-11-15T22:17:04.684Z,95.40
2017-11-15T22:19:33.077Z,95.30
2017-11-15T22:22:00.737Z,95.30
2017-11-15T22:24:28.328Z,95.30
2017-11-15T22:26:55.960Z,95.30
2017-11-15T22:29:24.353Z,95.30
2017-11-15T22:31:51.972Z,95.30
2017-11-15T22:34:19.606Z,95.30
2017-11-15T22:36:47.230Z,95.30
2017-11-15T22:39:14.908Z,95.20
2017-11-15T22:41:43.281Z,95.20
2017-11-15T22:44:10.921Z,95.50
2017-11-15T22:46:38.533Z,95.20
2017-11-15T22:49:06.211Z,95.20
2017-11-15T22:51:33.845Z,95.20
2017-11-15T22:54:02.286Z,95.10
2017-11-15T22:56:29.915Z,95.10
2017-11-15T22:58:57.735Z,95.10
2017-11-15T23:01:25.335Z,95.10
2017-11-15T23:03:53.771Z,95.00
2017-11-15T23:06:21.387Z,95.00
2017-11-15T23:08:49.471Z,94.90
2017-11-15T23:11:17.865Z,94.80
2017-11-15T23:13:45.527Z,94.80
2017-11-15T23:16:13.151Z,94.80
2017-11-15T23:18:40.761Z,94.80
2017-11-15T23:21:08.407Z,94.90
2017-11-15T23:23:36.548Z,95.00
2017-11-15T23:26:04.961Z,94.70
2017-11-15T23:28:33.338Z,95.10
2017-11-15T23:31:00.973Z,95.10
2017-11-15T23:33:28.566Z,95.10
2017-11-15T23:35:56.255Z,95.00
2017-11-15T23:38:24.630Z,95.10
2017-11-15T23:40:53.055Z,95.20
2017-11-15T23:43:20.729Z,95.20
2017-11-15T23:45:48.391Z,95.10
2017-11-15T23:48:16.007Z,95.10
2017-11-15T23:50:43.751Z,95.20
2017-11-15T23:53:11.377Z,95.20
2017-11-15T23:55:39.069Z,95.30
2017-11-15T23:58:06.676Z,95.30
